Hubert, North Carolina
Current Conditions -  °F | °C
As of 12:56 PM on Friday 24 Oct 2014 (Local Time) from KNCA Reporting Station
Clear Clear  
Wind Chill: 66°   Ceiling: Unl
Heat Index: 66°   Visibility: 10mi
Dew Point: 46°   Wind: 3mph
Humidity: 48%   Direction: NA
Pressure: 30.02"   Gusts: NA
Location:  34.71°N, 77.25°W
Report Text: KNCA 241656Z AUTO VRB03KT 10SM CLR 19/08 A3002 RMK AO2 SLP168 T01890078
Loading
Personal Weather Stations






























Interactive Weather Map
Tropical Storm Tracking
New forecast layout! Learn more

10-Day Weather Forecast

Advertisements
Track Severe Weather on mobile